sensor_id;sensor_type;location;lat;lon;timestamp;P1;durP1;ratioP1;P2;durP2;ratioP2
47539;SDS011;33280;52.152;21.052;2023-11-22T00:02:20;15.57;;;7.43;;
47539;SDS011;33280;52.152;21.052;2023-11-22T00:04:47;12.73;;;6.87;;
47539;SDS011;33280;52.152;21.052;2023-11-22T00:07:14;14.00;;;7.20;;
47539;SDS011;33280;52.152;21.052;2023-11-22T00:09:41;14.20;;;6.93;;
47539;SDS011;33280;52.152;21.052;2023-11-22T00:12:08;13.73;;;6.83;;
47539;SDS011;33280;52.152;21.052;2023-11-22T00:14:36;15.27;;;7.00;;
47539;SDS011;33280;52.152;21.052;2023-11-22T00:17:03;14.83;;;6.80;;
47539;SDS011;33280;52.152;21.052;2023-11-22T00:19:31;12.57;;;6.57;;
47539;SDS011;33280;52.152;21.052;2023-11-22T00:21:59;14.60;;;7.33;;
47539;SDS011;33280;52.152;21.052;2023-11-22T00:24:26;14.00;;;6.40;;
47539;SDS011;33280;52.152;21.052;2023-11-22T00:26:53;14.07;;;6.77;;
47539;SDS011;33280;52.152;21.052;2023-11-22T00:29:20;12.93;;;6.67;;
47539;SDS011;33280;52.152;21.052;2023-11-22T00:31:47;13.77;;;6.73;;
47539;SDS011;33280;52.152;21.052;2023-11-22T00:34:15;11.30;;;6.33;;
47539;SDS011;33280;52.152;21.052;2023-11-22T00:36:46;13.70;;;6.50;;
47539;SDS011;33280;52.152;21.052;2023-11-22T00:39:13;15.40;;;6.60;;
47539;SDS011;33280;52.152;21.052;2023-11-22T00:41:40;11.33;;;5.80;;
47539;SDS011;33280;52.152;21.052;2023-11-22T00:44:07;12.53;;;6.00;;
47539;SDS011;33280;52.152;21.052;2023-11-22T00:46:34;15.93;;;6.07;;
47539;SDS011;33280;52.152;21.052;2023-11-22T00:49:03;10.43;;;6.03;;
47539;SDS011;33280;52.152;21.052;2023-11-22T00:51:31;10.90;;;6.10;;
47539;SDS011;33280;52.152;21.052;2023-11-22T00:53:59;9.50;;;5.40;;
47539;SDS011;33280;52.152;21.052;2023-11-22T00:56:26;11.77;;;6.13;;
47539;SDS011;33280;52.152;21.052;2023-11-22T00:58:53;11.63;;;5.87;;
47539;SDS011;33280;52.152;21.052;2023-11-22T01:01:21;11.50;;;5.90;;
47539;SDS011;33280;52.152;21.052;2023-11-22T01:03:49;12.20;;;6.07;;
47539;SDS011;33280;52.152;21.052;2023-11-22T01:06:16;11.00;;;5.97;;
47539;SDS011;33280;52.152;21.052;2023-11-22T01:08:44;11.43;;;6.13;;
47539;SDS011;33280;52.152;21.052;2023-11-22T01:11:11;12.30;;;6.53;;
47539;SDS011;33280;52.152;21.052;2023-11-22T01:13:38;11.50;;;6.17;;
47539;SDS011;33280;52.152;21.052;2023-11-22T01:16:09;11.80;;;6.43;;
47539;SDS011;33280;52.152;21.052;2023-11-22T01:18:37;10.77;;;5.80;;
47539;SDS011;33280;52.152;21.052;2023-11-22T01:21:05;11.90;;;5.70;;
47539;SDS011;33280;52.152;21.052;2023-11-22T01:23:32;11.87;;;6.07;;
47539;SDS011;33280;52.152;21.052;2023-11-22T01:26:00;10.57;;;6.00;;
47539;SDS011;33280;52.152;21.052;2023-11-22T01:28:29;13.60;;;6.37;;
47539;SDS011;33280;52.152;21.052;2023-11-22T01:31:00;11.20;;;5.53;;
47539;SDS011;33280;52.152;21.052;2023-11-22T01:33:30;9.80;;;5.67;;
47539;SDS011;33280;52.152;21.052;2023-11-22T01:35:59;12.77;;;5.53;;
47539;SDS011;33280;52.152;21.052;2023-11-22T01:38:26;11.70;;;5.53;;
47539;SDS011;33280;52.152;21.052;2023-11-22T01:40:53;12.60;;;5.40;;
47539;SDS011;33280;52.152;21.052;2023-11-22T01:43:20;9.07;;;5.23;;
47539;SDS011;33280;52.152;21.052;2023-11-22T01:45:50;8.70;;;5.07;;
47539;SDS011;33280;52.152;21.052;2023-11-22T01:48:18;9.77;;;5.20;;
47539;SDS011;33280;52.152;21.052;2023-11-22T01:50:46;11.53;;;5.40;;
47539;SDS011;33280;52.152;21.052;2023-11-22T01:53:14;11.47;;;5.40;;
47539;SDS011;33280;52.152;21.052;2023-11-22T01:55:45;8.80;;;4.80;;
47539;SDS011;33280;52.152;21.052;2023-11-22T01:58:13;11.70;;;5.83;;
47539;SDS011;33280;52.152;21.052;2023-11-22T02:00:50;8.83;;;5.60;;
47539;SDS011;33280;52.152;21.052;2023-11-22T02:03:19;8.27;;;4.67;;
47539;SDS011;33280;52.152;21.052;2023-11-22T02:05:47;10.37;;;5.20;;
47539;SDS011;33280;52.152;21.052;2023-11-22T02:08:15;10.60;;;5.00;;
47539;SDS011;33280;52.152;21.052;2023-11-22T02:10:45;7.87;;;4.50;;
47539;SDS011;33280;52.152;21.052;2023-11-22T02:13:15;8.57;;;4.73;;
47539;SDS011;33280;52.152;21.052;2023-11-22T02:15:42;10.43;;;4.87;;
47539;SDS011;33280;52.152;21.052;2023-11-22T02:18:09;9.30;;;4.83;;
47539;SDS011;33280;52.152;21.052;2023-11-22T02:20:39;9.87;;;5.40;;
47539;SDS011;33280;52.152;21.052;2023-11-22T02:23:08;9.27;;;4.77;;
47539;SDS011;33280;52.152;21.052;2023-11-22T02:25:36;8.30;;;4.80;;
47539;SDS011;33280;52.152;21.052;2023-11-22T02:28:04;8.87;;;4.30;;
47539;SDS011;33280;52.152;21.052;2023-11-22T02:30:31;6.97;;;4.53;;
47539;SDS011;33280;52.152;21.052;2023-11-22T02:32:58;9.67;;;4.67;;
47539;SDS011;33280;52.152;21.052;2023-11-22T02:35:26;8.27;;;4.93;;
47539;SDS011;33280;52.152;21.052;2023-11-22T02:37:56;8.57;;;4.73;;
47539;SDS011;33280;52.152;21.052;2023-11-22T02:40:24;9.27;;;4.90;;
47539;SDS011;33280;52.152;21.052;2023-11-22T02:42:52;9.00;;;4.80;;
47539;SDS011;33280;52.152;21.052;2023-11-22T02:45:20;7.20;;;4.53;;
47539;SDS011;33280;52.152;21.052;2023-11-22T02:47:52;6.47;;;3.97;;
47539;SDS011;33280;52.152;21.052;2023-11-22T02:50:19;8.07;;;4.30;;
47539;SDS011;33280;52.152;21.052;2023-11-22T02:52:46;7.43;;;4.20;;
47539;SDS011;33280;52.152;21.052;2023-11-22T02:55:13;9.53;;;4.60;;
47539;SDS011;33280;52.152;21.052;2023-11-22T02:57:41;7.53;;;4.53;;
47539;SDS011;33280;52.152;21.052;2023-11-22T03:00:09;7.27;;;4.53;;
47539;SDS011;33280;52.152;21.052;2023-11-22T03:02:42;9.27;;;4.70;;
47539;SDS011;33280;52.152;21.052;2023-11-22T03:05:09;8.50;;;4.53;;
47539;SDS011;33280;52.152;21.052;2023-11-22T03:07:37;7.20;;;4.43;;
47539;SDS011;33280;52.152;21.052;2023-11-22T03:10:04;9.10;;;5.00;;
47539;SDS011;33280;52.152;21.052;2023-11-22T03:12:34;7.97;;;4.43;;
47539;SDS011;33280;52.152;21.052;2023-11-22T03:15:01;8.40;;;5.27;;
47539;SDS011;33280;52.152;21.052;2023-11-22T03:17:29;9.07;;;4.57;;
47539;SDS011;33280;52.152;21.052;2023-11-22T03:19:57;8.77;;;4.70;;
47539;SDS011;33280;52.152;21.052;2023-11-22T03:22:25;7.60;;;4.50;;
47539;SDS011;33280;52.152;21.052;2023-11-22T03:25:00;8.67;;;5.00;;
47539;SDS011;33280;52.152;21.052;2023-11-22T03:27:29;7.17;;;4.30;;
47539;SDS011;33280;52.152;21.052;2023-11-22T03:29:56;7.40;;;4.33;;
47539;SDS011;33280;52.152;21.052;2023-11-22T03:32:23;8.90;;;5.03;;
47539;SDS011;33280;52.152;21.052;2023-11-22T03:34:50;10.33;;;4.53;;
47539;SDS011;33280;52.152;21.052;2023-11-22T03:37:17;7.63;;;4.03;;
47539;SDS011;33280;52.152;21.052;2023-11-22T03:39:44;7.63;;;4.23;;
47539;SDS011;33280;52.152;21.052;2023-11-22T03:42:15;6.77;;;4.10;;
47539;SDS011;33280;52.152;21.052;2023-11-22T03:44:43;6.80;;;3.83;;
47539;SDS011;33280;52.152;21.052;2023-11-22T03:47:10;8.63;;;4.57;;
47539;SDS011;33280;52.152;21.052;2023-11-22T03:49:41;7.67;;;4.10;;
47539;SDS011;33280;52.152;21.052;2023-11-22T03:52:12;7.97;;;4.20;;
47539;SDS011;33280;52.152;21.052;2023-11-22T03:54:40;7.57;;;4.33;;
47539;SDS011;33280;52.152;21.052;2023-11-22T03:57:07;8.07;;;4.30;;
47539;SDS011;33280;52.152;21.052;2023-11-22T03:59:35;6.57;;;4.03;;
47539;SDS011;33280;52.152;21.052;2023-11-22T04:02:02;8.10;;;4.30;;
47539;SDS011;33280;52.152;21.052;2023-11-22T04:04:30;7.23;;;4.27;;
47539;SDS011;33280;52.152;21.052;2023-11-22T04:06:58;6.93;;;3.97;;
47539;SDS011;33280;52.152;21.052;2023-11-22T04:09:25;6.40;;;4.10;;
47539;SDS011;33280;52.152;21.052;2023-11-22T04:11:52;9.83;;;4.67;;
47539;SDS011;33280;52.152;21.052;2023-11-22T04:14:19;6.17;;;3.87;;
47539;SDS011;33280;52.152;21.052;2023-11-22T04:16:48;8.50;;;4.40;;
47539;SDS011;33280;52.152;21.052;2023-11-22T04:19:16;7.43;;;4.40;;
47539;SDS011;33280;52.152;21.052;2023-11-22T04:21:43;7.57;;;4.40;;
47539;SDS011;33280;52.152;21.052;2023-11-22T04:24:11;9.03;;;4.73;;
47539;SDS011;33280;52.152;21.052;2023-11-22T04:26:38;7.47;;;4.60;;
47539;SDS011;33280;52.152;21.052;2023-11-22T04:29:05;9.23;;;4.70;;
47539;SDS011;33280;52.152;21.052;2023-11-22T04:31:33;9.17;;;4.80;;
47539;SDS011;33280;52.152;21.052;2023-11-22T04:34:00;8.63;;;4.47;;
47539;SDS011;33280;52.152;21.052;2023-11-22T04:36:27;8.33;;;4.40;;
47539;SDS011;33280;52.152;21.052;2023-11-22T04:38:54;10.03;;;4.83;;
47539;SDS011;33280;52.152;21.052;2023-11-22T04:41:21;6.27;;;4.20;;
47539;SDS011;33280;52.152;21.052;2023-11-22T04:43:49;8.23;;;4.23;;
47539;SDS011;33280;52.152;21.052;2023-11-22T04:46:16;7.93;;;4.13;;
47539;SDS011;33280;52.152;21.052;2023-11-22T04:48:43;7.70;;;4.53;;
47539;SDS011;33280;52.152;21.052;2023-11-22T04:51:11;8.97;;;4.60;;
47539;SDS011;33280;52.152;21.052;2023-11-22T04:53:38;8.73;;;4.70;;
47539;SDS011;33280;52.152;21.052;2023-11-22T04:56:05;8.00;;;4.27;;
47539;SDS011;33280;52.152;21.052;2023-11-22T04:58:33;10.10;;;4.60;;
47539;SDS011;33280;52.152;21.052;2023-11-22T05:01:01;8.33;;;4.60;;
47539;SDS011;33280;52.152;21.052;2023-11-22T05:03:28;9.40;;;4.60;;
47539;SDS011;33280;52.152;21.052;2023-11-22T05:05:55;5.77;;;3.93;;
47539;SDS011;33280;52.152;21.052;2023-11-22T05:08:22;9.53;;;4.57;;
47539;SDS011;33280;52.152;21.052;2023-11-22T05:10:49;8.50;;;4.40;;
47539;SDS011;33280;52.152;21.052;2023-11-22T05:13:19;8.90;;;4.53;;
47539;SDS011;33280;52.152;21.052;2023-11-22T05:15:46;9.10;;;4.80;;
47539;SDS011;33280;52.152;21.052;2023-11-22T05:18:14;7.07;;;4.10;;
47539;SDS011;33280;52.152;21.052;2023-11-22T05:20:41;8.40;;;4.60;;
47539;SDS011;33280;52.152;21.052;2023-11-22T05:23:08;7.87;;;4.33;;
47539;SDS011;33280;52.152;21.052;2023-11-22T05:25:35;8.97;;;4.33;;
47539;SDS011;33280;52.152;21.052;2023-11-22T05:28:02;8.40;;;4.27;;
47539;SDS011;33280;52.152;21.052;2023-11-22T05:30:30;8.53;;;4.80;;
47539;SDS011;33280;52.152;21.052;2023-11-22T05:32:57;8.30;;;4.40;;
47539;SDS011;33280;52.152;21.052;2023-11-22T05:35:24;8.67;;;4.50;;
47539;SDS011;33280;52.152;21.052;2023-11-22T05:37:52;11.80;;;4.53;;
47539;SDS011;33280;52.152;21.052;2023-11-22T05:40:19;9.43;;;4.70;;
47539;SDS011;33280;52.152;21.052;2023-11-22T05:42:46;7.30;;;4.17;;
47539;SDS011;33280;52.152;21.052;2023-11-22T05:45:13;7.87;;;4.43;;
47539;SDS011;33280;52.152;21.052;2023-11-22T05:47:40;7.97;;;4.70;;
47539;SDS011;33280;52.152;21.052;2023-11-22T05:50:09;9.20;;;4.77;;
47539;SDS011;33280;52.152;21.052;2023-11-22T05:52:36;8.97;;;5.07;;
47539;SDS011;33280;52.152;21.052;2023-11-22T05:55:04;9.70;;;4.83;;
47539;SDS011;33280;52.152;21.052;2023-11-22T05:57:31;7.80;;;4.60;;
47539;SDS011;33280;52.152;21.052;2023-11-22T05:59:58;8.37;;;4.87;;
47539;SDS011;33280;52.152;21.052;2023-11-22T06:02:26;9.77;;;5.03;;
47539;SDS011;33280;52.152;21.052;2023-11-22T06:04:53;10.80;;;5.27;;
47539;SDS011;33280;52.152;21.052;2023-11-22T06:07:21;8.83;;;4.70;;
47539;SDS011;33280;52.152;21.052;2023-11-22T06:09:49;10.17;;;5.03;;
47539;SDS011;33280;52.152;21.052;2023-11-22T06:12:16;8.93;;;4.90;;
47539;SDS011;33280;52.152;21.052;2023-11-22T06:14:43;11.03;;;5.40;;
47539;SDS011;33280;52.152;21.052;2023-11-22T06:17:10;9.97;;;5.10;;
47539;SDS011;33280;52.152;21.052;2023-11-22T06:19:38;8.70;;;5.00;;
47539;SDS011;33280;52.152;21.052;2023-11-22T06:22:05;9.37;;;5.43;;
47539;SDS011;33280;52.152;21.052;2023-11-22T06:24:33;10.93;;;5.50;;
47539;SDS011;33280;52.152;21.052;2023-11-22T06:27:02;8.63;;;4.67;;
47539;SDS011;33280;52.152;21.052;2023-11-22T06:29:30;10.20;;;4.97;;
47539;SDS011;33280;52.152;21.052;2023-11-22T06:31:58;8.73;;;4.73;;
47539;SDS011;33280;52.152;21.052;2023-11-22T06:34:25;9.30;;;4.73;;
47539;SDS011;33280;52.152;21.052;2023-11-22T06:36:53;8.50;;;4.83;;
47539;SDS011;33280;52.152;21.052;2023-11-22T06:39:20;7.83;;;4.73;;
47539;SDS011;33280;52.152;21.052;2023-11-22T06:41:49;10.77;;;5.27;;
47539;SDS011;33280;52.152;21.052;2023-11-22T06:44:17;10.20;;;5.50;;
47539;SDS011;33280;52.152;21.052;2023-11-22T06:46:45;10.20;;;5.27;;
47539;SDS011;33280;52.152;21.052;2023-11-22T06:49:13;9.70;;;5.10;;
47539;SDS011;33280;52.152;21.052;2023-11-22T06:51:41;9.97;;;5.27;;
47539;SDS011;33280;52.152;21.052;2023-11-22T06:54:08;10.93;;;5.60;;
47539;SDS011;33280;52.152;21.052;2023-11-22T06:56:37;9.90;;;5.37;;
47539;SDS011;33280;52.152;21.052;2023-11-22T06:59:04;10.20;;;5.27;;
47539;SDS011;33280;52.152;21.052;2023-11-22T07:01:31;11.60;;;5.47;;
47539;SDS011;33280;52.152;21.052;2023-11-22T07:03:58;12.10;;;5.70;;
47539;SDS011;33280;52.152;21.052;2023-11-22T07:06:27;10.67;;;5.60;;
47539;SDS011;33280;52.152;21.052;2023-11-22T07:08:55;9.37;;;5.53;;
47539;SDS011;33280;52.152;21.052;2023-11-22T07:11:22;9.53;;;5.63;;
47539;SDS011;33280;52.152;21.052;2023-11-22T07:13:50;8.70;;;5.30;;
47539;SDS011;33280;52.152;21.052;2023-11-22T07:16:19;9.67;;;5.10;;
47539;SDS011;33280;52.152;21.052;2023-11-22T07:18:47;11.00;;;5.80;;
47539;SDS011;33280;52.152;21.052;2023-11-22T07:21:14;10.13;;;5.50;;
47539;SDS011;33280;52.152;21.052;2023-11-22T07:23:41;11.60;;;5.33;;
47539;SDS011;33280;52.152;21.052;2023-11-22T07:26:08;10.83;;;5.60;;
47539;SDS011;33280;52.152;21.052;2023-11-22T07:28:36;10.37;;;4.97;;
47539;SDS011;33280;52.152;21.052;2023-11-22T07:31:06;9.43;;;4.87;;
47539;SDS011;33280;52.152;21.052;2023-11-22T07:33:34;8.93;;;4.73;;
47539;SDS011;33280;52.152;21.052;2023-11-22T07:36:02;7.80;;;4.73;;
47539;SDS011;33280;52.152;21.052;2023-11-22T07:38:30;10.03;;;5.07;;
47539;SDS011;33280;52.152;21.052;2023-11-22T07:41:00;10.83;;;5.10;;
47539;SDS011;33280;52.152;21.052;2023-11-22T07:43:27;10.17;;;4.63;;
47539;SDS011;33280;52.152;21.052;2023-11-22T07:45:54;9.03;;;5.10;;
47539;SDS011;33280;52.152;21.052;2023-11-22T07:48:21;10.37;;;4.97;;
47539;SDS011;33280;52.152;21.052;2023-11-22T07:50:49;10.50;;;5.30;;
47539;SDS011;33280;52.152;21.052;2023-11-22T07:53:19;11.40;;;4.97;;
47539;SDS011;33280;52.152;21.052;2023-11-22T07:55:47;8.97;;;4.93;;
47539;SDS011;33280;52.152;21.052;2023-11-22T07:58:14;8.30;;;5.10;;
47539;SDS011;33280;52.152;21.052;2023-11-22T08:00:42;8.93;;;4.90;;
47539;SDS011;33280;52.152;21.052;2023-11-22T08:03:12;10.57;;;5.37;;
47539;SDS011;33280;52.152;21.052;2023-11-22T08:05:42;8.43;;;4.97;;
47539;SDS011;33280;52.152;21.052;2023-11-22T08:08:12;7.87;;;4.73;;
47539;SDS011;33280;52.152;21.052;2023-11-22T08:10:40;9.67;;;4.90;;
47539;SDS011;33280;52.152;21.052;2023-11-22T08:13:09;10.60;;;5.10;;
47539;SDS011;33280;52.152;21.052;2023-11-22T08:15:37;8.90;;;4.93;;
47539;SDS011;33280;52.152;21.052;2023-11-22T08:18:04;8.30;;;4.47;;
47539;SDS011;33280;52.152;21.052;2023-11-22T08:20:32;9.63;;;4.40;;
47539;SDS011;33280;52.152;21.052;2023-11-22T08:22:59;6.17;;;3.93;;
47539;SDS011;33280;52.152;21.052;2023-11-22T08:25:27;8.20;;;3.70;;
47539;SDS011;33280;52.152;21.052;2023-11-22T08:27:54;7.10;;;4.43;;
47539;SDS011;33280;52.152;21.052;2023-11-22T08:30:22;5.93;;;4.00;;
47539;SDS011;33280;52.152;21.052;2023-11-22T08:32:49;8.10;;;4.90;;
47539;SDS011;33280;52.152;21.052;2023-11-22T08:35:22;7.33;;;4.43;;
47539;SDS011;33280;52.152;21.052;2023-11-22T08:37:50;6.97;;;4.20;;
47539;SDS011;33280;52.152;21.052;2023-11-22T08:40:18;6.70;;;4.27;;
47539;SDS011;33280;52.152;21.052;2023-11-22T08:42:47;8.20;;;4.10;;
47539;SDS011;33280;52.152;21.052;2023-11-22T08:45:15;7.53;;;4.40;;
47539;SDS011;33280;52.152;21.052;2023-11-22T08:47:42;8.47;;;4.40;;
47539;SDS011;33280;52.152;21.052;2023-11-22T08:50:10;8.37;;;4.60;;
47539;SDS011;33280;52.152;21.052;2023-11-22T08:52:42;7.13;;;4.60;;
47539;SDS011;33280;52.152;21.052;2023-11-22T08:55:12;8.50;;;4.60;;
47539;SDS011;33280;52.152;21.052;2023-11-22T08:57:41;6.67;;;4.17;;
47539;SDS011;33280;52.152;21.052;2023-11-22T09:00:08;6.90;;;4.07;;
47539;SDS011;33280;52.152;21.052;2023-11-22T09:02:37;8.27;;;4.13;;
47539;SDS011;33280;52.152;21.052;2023-11-22T09:05:06;6.87;;;3.77;;
47539;SDS011;33280;52.152;21.052;2023-11-22T09:07:39;7.03;;;4.30;;
47539;SDS011;33280;52.152;21.052;2023-11-22T09:10:07;8.13;;;4.37;;
47539;SDS011;33280;52.152;21.052;2023-11-22T09:12:37;7.67;;;4.37;;
47539;SDS011;33280;52.152;21.052;2023-11-22T09:15:09;8.07;;;4.40;;
47539;SDS011;33280;52.152;21.052;2023-11-22T09:17:41;8.40;;;4.60;;
47539;SDS011;33280;52.152;21.052;2023-11-22T09:20:10;7.13;;;4.53;;
47539;SDS011;33280;52.152;21.052;2023-11-22T09:22:42;8.33;;;4.73;;
47539;SDS011;33280;52.152;21.052;2023-11-22T09:25:23;9.20;;;5.10;;
47539;SDS011;33280;52.152;21.052;2023-11-22T09:27:52;7.87;;;4.57;;
47539;SDS011;33280;52.152;21.052;2023-11-22T09:30:25;7.40;;;4.50;;
47539;SDS011;33280;52.152;21.052;2023-11-22T09:33:00;8.53;;;4.97;;
47539;SDS011;33280;52.152;21.052;2023-11-22T09:35:32;10.80;;;5.23;;
47539;SDS011;33280;52.152;21.052;2023-11-22T09:38:01;14.63;;;5.03;;
47539;SDS011;33280;52.152;21.052;2023-11-22T09:40:29;8.00;;;4.87;;
47539;SDS011;33280;52.152;21.052;2023-11-22T09:42:58;8.60;;;4.90;;
47539;SDS011;33280;52.152;21.052;2023-11-22T09:45:31;9.93;;;5.10;;
47539;SDS011;33280;52.152;21.052;2023-11-22T09:47:59;7.00;;;4.43;;
47539;SDS011;33280;52.152;21.052;2023-11-22T09:50:35;10.17;;;4.73;;
47539;SDS011;33280;52.152;21.052;2023-11-22T09:53:06;9.23;;;5.00;;
47539;SDS011;33280;52.152;21.052;2023-11-22T09:55:39;7.40;;;4.13;;
47539;SDS011;33280;52.152;21.052;2023-11-22T09:58:11;6.00;;;4.10;;
47539;SDS011;33280;52.152;21.052;2023-11-22T10:00:40;8.73;;;4.20;;
47539;SDS011;33280;52.152;21.052;2023-11-22T10:03:11;8.13;;;4.07;;
47539;SDS011;33280;52.152;21.052;2023-11-22T10:05:44;6.83;;;4.33;;
47539;SDS011;33280;52.152;21.052;2023-11-22T10:08:11;7.00;;;3.93;;
47539;SDS011;33280;52.152;21.052;2023-11-22T10:10:39;6.80;;;4.33;;
47539;SDS011;33280;52.152;21.052;2023-11-22T10:13:11;6.80;;;4.17;;
47539;SDS011;33280;52.152;21.052;2023-11-22T10:15:39;6.10;;;3.77;;
47539;SDS011;33280;52.152;21.052;2023-11-22T10:18:06;8.17;;;3.70;;
47539;SDS011;33280;52.152;21.052;2023-11-22T10:20:37;9.43;;;4.37;;
47539;SDS011;33280;52.152;21.052;2023-11-22T10:23:10;6.73;;;4.33;;
47539;SDS011;33280;52.152;21.052;2023-11-22T10:25:48;6.63;;;4.10;;
47539;SDS011;33280;52.152;21.052;2023-11-22T10:28:18;8.57;;;4.00;;
47539;SDS011;33280;52.152;21.052;2023-11-22T10:30:57;10.47;;;4.33;;
47539;SDS011;33280;52.152;21.052;2023-11-22T10:33:24;7.57;;;3.90;;
47539;SDS011;33280;52.152;21.052;2023-11-22T10:35:54;7.23;;;3.93;;
47539;SDS011;33280;52.152;21.052;2023-11-22T10:38:22;5.53;;;3.37;;
47539;SDS011;33280;52.152;21.052;2023-11-22T10:40:49;6.93;;;3.90;;
47539;SDS011;33280;52.152;21.052;2023-11-22T10:43:18;5.53;;;3.60;;
47539;SDS011;33280;52.152;21.052;2023-11-22T10:45:49;8.27;;;4.33;;
47539;SDS011;33280;52.152;21.052;2023-11-22T10:48:20;9.57;;;4.50;;
47539;SDS011;33280;52.152;21.052;2023-11-22T10:50:47;6.77;;;4.23;;
47539;SDS011;33280;52.152;21.052;2023-11-22T10:53:16;6.90;;;4.00;;
47539;SDS011;33280;52.152;21.052;2023-11-22T10:55:47;8.37;;;4.13;;
47539;SDS011;33280;52.152;21.052;2023-11-22T10:58:15;6.83;;;3.93;;
47539;SDS011;33280;52.152;21.052;2023-11-22T11:00:44;11.30;;;4.00;;
47539;SDS011;33280;52.152;21.052;2023-11-22T11:03:19;6.60;;;4.10;;
47539;SDS011;33280;52.152;21.052;2023-11-22T11:05:50;7.33;;;3.67;;
47539;SDS011;33280;52.152;21.052;2023-11-22T11:08:31;7.00;;;3.80;;
47539;SDS011;33280;52.152;21.052;2023-11-22T11:11:00;5.17;;;3.30;;
47539;SDS011;33280;52.152;21.052;2023-11-22T11:13:30;6.60;;;3.87;;
47539;SDS011;33280;52.152;21.052;2023-11-22T11:15:57;6.93;;;3.90;;
47539;SDS011;33280;52.152;21.052;2023-11-22T11:18:26;6.40;;;3.80;;
47539;SDS011;33280;52.152;21.052;2023-11-22T11:21:04;8.20;;;3.70;;
47539;SDS011;33280;52.152;21.052;2023-11-22T11:23:39;7.03;;;3.57;;
47539;SDS011;33280;52.152;21.052;2023-11-22T11:26:17;6.30;;;3.67;;
47539;SDS011;33280;52.152;21.052;2023-11-22T11:28:51;5.97;;;3.67;;
47539;SDS011;33280;52.152;21.052;2023-11-22T11:31:20;5.70;;;3.47;;
47539;SDS011;33280;52.152;21.052;2023-11-22T11:36:23;7.60;;;3.73;;
47539;SDS011;33280;52.152;21.052;2023-11-22T11:38:56;6.33;;;3.70;;
47539;SDS011;33280;52.152;21.052;2023-11-22T11:41:28;4.80;;;3.50;;
47539;SDS011;33280;52.152;21.052;2023-11-22T11:44:03;6.47;;;3.77;;
47539;SDS011;33280;52.152;21.052;2023-11-22T11:46:34;5.57;;;3.67;;
47539;SDS011;33280;52.152;21.052;2023-11-22T11:49:05;6.57;;;4.10;;
47539;SDS011;33280;52.152;21.052;2023-11-22T11:51:36;5.73;;;3.83;;
47539;SDS011;33280;52.152;21.052;2023-11-22T11:54:05;6.10;;;3.77;;
47539;SDS011;33280;52.152;21.052;2023-11-22T11:56:33;5.47;;;3.47;;
47539;SDS011;33280;52.152;21.052;2023-11-22T11:59:01;6.47;;;3.90;;
47539;SDS011;33280;52.152;21.052;2023-11-22T12:01:29;5.87;;;3.40;;
47539;SDS011;33280;52.152;21.052;2023-11-22T12:03:57;5.07;;;3.23;;
47539;SDS011;33280;52.152;21.052;2023-11-22T12:06:28;4.53;;;3.60;;
47539;SDS011;33280;52.152;21.052;2023-11-22T12:08:56;9.73;;;4.17;;
47539;SDS011;33280;52.152;21.052;2023-11-22T12:11:25;6.70;;;3.90;;
47539;SDS011;33280;52.152;21.052;2023-11-22T12:13:52;6.10;;;3.67;;
47539;SDS011;33280;52.152;21.052;2023-11-22T12:16:21;5.97;;;3.50;;
47539;SDS011;33280;52.152;21.052;2023-11-22T12:18:49;8.43;;;4.10;;
47539;SDS011;33280;52.152;21.052;2023-11-22T12:21:18;7.43;;;3.90;;
47539;SDS011;33280;52.152;21.052;2023-11-22T12:23:46;5.70;;;3.73;;
47539;SDS011;33280;52.152;21.052;2023-11-22T12:26:16;6.97;;;4.20;;
47539;SDS011;33280;52.152;21.052;2023-11-22T12:28:47;8.33;;;4.00;;
47539;SDS011;33280;52.152;21.052;2023-11-22T12:31:31;7.50;;;3.70;;
47539;SDS011;33280;52.152;21.052;2023-11-22T12:34:03;5.87;;;3.87;;
47539;SDS011;33280;52.152;21.052;2023-11-22T12:36:34;6.60;;;4.03;;
47539;SDS011;33280;52.152;21.052;2023-11-22T12:39:06;7.67;;;4.20;;
47539;SDS011;33280;52.152;21.052;2023-11-22T12:41:35;6.00;;;3.90;;
47539;SDS011;33280;52.152;21.052;2023-11-22T12:44:06;8.30;;;4.10;;
47539;SDS011;33280;52.152;21.052;2023-11-22T12:46:47;6.30;;;4.10;;
47539;SDS011;33280;52.152;21.052;2023-11-22T12:49:16;6.80;;;4.03;;
47539;SDS011;33280;52.152;21.052;2023-11-22T12:51:48;9.13;;;4.30;;
47539;SDS011;33280;52.152;21.052;2023-11-22T12:54:17;8.57;;;4.33;;
47539;SDS011;33280;52.152;21.052;2023-11-22T12:56:51;7.73;;;4.00;;
47539;SDS011;33280;52.152;21.052;2023-11-22T12:59:26;5.30;;;3.80;;
47539;SDS011;33280;52.152;21.052;2023-11-22T13:01:54;6.90;;;4.20;;
47539;SDS011;33280;52.152;21.052;2023-11-22T13:04:22;6.97;;;4.30;;
47539;SDS011;33280;52.152;21.052;2023-11-22T13:06:50;8.67;;;4.93;;
47539;SDS011;33280;52.152;21.052;2023-11-22T13:09:17;14.67;;;5.20;;
47539;SDS011;33280;52.152;21.052;2023-11-22T13:11:44;6.53;;;4.10;;
47539;SDS011;33280;52.152;21.052;2023-11-22T13:14:12;10.33;;;4.33;;
47539;SDS011;33280;52.152;21.052;2023-11-22T13:16:43;7.63;;;4.70;;
47539;SDS011;33280;52.152;21.052;2023-11-22T13:19:12;8.97;;;4.90;;
47539;SDS011;33280;52.152;21.052;2023-11-22T13:21:40;7.57;;;4.53;;
47539;SDS011;33280;52.152;21.052;2023-11-22T13:24:11;10.47;;;4.83;;
47539;SDS011;33280;52.152;21.052;2023-11-22T13:26:40;8.10;;;4.67;;
47539;SDS011;33280;52.152;21.052;2023-11-22T13:29:11;6.67;;;4.50;;
47539;SDS011;33280;52.152;21.052;2023-11-22T13:31:38;9.57;;;4.67;;
47539;SDS011;33280;52.152;21.052;2023-11-22T13:34:06;6.73;;;4.20;;
47539;SDS011;33280;52.152;21.052;2023-11-22T13:36:33;6.70;;;4.40;;
47539;SDS011;33280;52.152;21.052;2023-11-22T13:39:01;9.77;;;4.93;;
47539;SDS011;33280;52.152;21.052;2023-11-22T13:41:30;10.53;;;5.23;;
47539;SDS011;33280;52.152;21.052;2023-11-22T13:43:59;9.77;;;4.93;;
47539;SDS011;33280;52.152;21.052;2023-11-22T13:46:27;9.60;;;4.60;;
47539;SDS011;33280;52.152;21.052;2023-11-22T13:48:55;9.33;;;5.30;;
47539;SDS011;33280;52.152;21.052;2023-11-22T13:51:24;7.03;;;4.50;;
47539;SDS011;33280;52.152;21.052;2023-11-22T13:53:51;9.23;;;4.63;;
47539;SDS011;33280;52.152;21.052;2023-11-22T13:56:20;10.03;;;5.07;;
47539;SDS011;33280;52.152;21.052;2023-11-22T13:58:48;8.60;;;4.77;;
47539;SDS011;33280;52.152;21.052;2023-11-22T14:01:15;12.73;;;5.17;;
47539;SDS011;33280;52.152;21.052;2023-11-22T14:03:48;7.90;;;4.30;;
47539;SDS011;33280;52.152;21.052;2023-11-22T14:06:16;6.57;;;4.17;;
47539;SDS011;33280;52.152;21.052;2023-11-22T14:08:44;7.87;;;4.70;;
47539;SDS011;33280;52.152;21.052;2023-11-22T14:11:12;9.00;;;4.90;;
47539;SDS011;33280;52.152;21.052;2023-11-22T14:13:39;9.33;;;5.00;;
47539;SDS011;33280;52.152;21.052;2023-11-22T14:16:08;8.60;;;4.87;;
47539;SDS011;33280;52.152;21.052;2023-11-22T14:18:40;8.33;;;5.03;;
47539;SDS011;33280;52.152;21.052;2023-11-22T14:21:07;9.23;;;4.87;;
47539;SDS011;33280;52.152;21.052;2023-11-22T14:23:35;14.10;;;5.00;;
47539;SDS011;33280;52.152;21.052;2023-11-22T14:26:03;7.80;;;4.60;;
47539;SDS011;33280;52.152;21.052;2023-11-22T14:28:30;7.17;;;4.63;;
47539;SDS011;33280;52.152;21.052;2023-11-22T14:30:59;7.30;;;4.60;;
47539;SDS011;33280;52.152;21.052;2023-11-22T14:33:27;10.27;;;6.10;;
47539;SDS011;33280;52.152;21.052;2023-11-22T14:35:58;8.97;;;4.87;;
47539;SDS011;33280;52.152;21.052;2023-11-22T14:38:26;11.57;;;5.23;;
47539;SDS011;33280;52.152;21.052;2023-11-22T14:40:53;12.27;;;5.90;;
47539;SDS011;33280;52.152;21.052;2023-11-22T14:43:23;13.63;;;6.33;;